createdAt,value
2023-05-01T00:00:49.176Z,5.15
2023-05-01T00:03:22.053Z,4.53
2023-05-01T00:06:01.111Z,5.20
2023-05-01T00:08:33.871Z,4.80
2023-05-01T00:11:09.968Z,5.72
2023-05-01T00:13:42.761Z,4.43
2023-05-01T00:16:17.065Z,5.07
2023-05-01T00:18:49.930Z,5.28
2023-05-01T00:21:22.417Z,8.27
2023-05-01T00:23:55.941Z,8.90
2023-05-01T00:26:31.327Z,11.07
2023-05-01T00:29:04.148Z,11.10
2023-05-01T00:31:37.150Z,9.43
2023-05-01T00:34:11.567Z,10.52
2023-05-01T00:36:44.505Z,8.10
2023-05-01T00:39:17.254Z,7.57
2023-05-01T00:41:49.745Z,7.20
2023-05-01T00:44:22.781Z,9.32
2023-05-01T00:46:56.601Z,6.75
2023-05-01T00:49:29.423Z,6.70
2023-05-01T00:52:02.146Z,8.68
2023-05-01T00:54:35.194Z,9.80
2023-05-01T00:57:09.618Z,8.63
2023-05-01T00:59:42.626Z,7.03
2023-05-01T01:02:15.841Z,8.50
2023-05-01T01:04:49.004Z,8.13
2023-05-01T01:07:54.676Z,8.48
2023-05-01T01:10:30.880Z,8.45
2023-05-01T01:13:21.970Z,8.18
2023-05-01T01:16:05.970Z,9.60
2023-05-01T01:18:51.634Z,9.70
2023-05-01T01:21:42.954Z,10.73
2023-05-01T01:25:00.359Z,8.63
2023-05-01T01:27:44.617Z,9.63
2023-05-01T01:30:56.901Z,8.40
2023-05-01T01:33:50.404Z,10.35
2023-05-01T01:36:39.036Z,10.10
2023-05-01T01:39:30.459Z,9.25
2023-05-01T01:42:09.750Z,8.48
2023-05-01T01:44:49.073Z,9.13
2023-05-01T01:47:33.840Z,8.70
2023-05-01T01:50:08.469Z,8.25
2023-05-01T01:52:43.589Z,9.00
2023-05-01T01:55:17.982Z,9.38
2023-05-01T01:57:51.185Z,8.90
2023-05-01T02:00:24.478Z,9.10
2023-05-01T02:03:00.158Z,10.18
2023-05-01T02:05:34.829Z,8.40
2023-05-01T02:08:08.601Z,9.07
2023-05-01T02:10:43.762Z,7.90
2023-05-01T02:13:18.178Z,9.05
2023-05-01T02:15:52.198Z,8.35
2023-05-01T02:18:26.609Z,9.02
2023-05-01T02:21:00.448Z,7.35
2023-05-01T02:23:33.995Z,7.60
2023-05-01T02:26:10.675Z,8.02
2023-05-01T02:28:44.120Z,7.70
2023-05-01T02:31:17.018Z,7.82
2023-05-01T02:33:49.709Z,7.38
2023-05-01T02:36:22.507Z,6.65
2023-05-01T02:38:55.464Z,6.82
2023-05-01T02:41:29.563Z,6.18
2023-05-01T02:44:04.656Z,7.28
2023-05-01T02:46:38.912Z,6.60
2023-05-01T02:49:13.542Z,6.90
2023-05-01T02:51:47.817Z,6.53
2023-05-01T02:54:20.940Z,7.45
2023-05-01T02:56:53.993Z,6.45
2023-05-01T02:59:26.469Z,6.18
2023-05-01T03:01:59.843Z,5.93
2023-05-01T03:04:32.336Z,6.70
2023-05-01T03:07:05.197Z,6.22
2023-05-01T03:09:38.255Z,6.68
2023-05-01T03:12:11.017Z,7.13
2023-05-01T03:14:43.461Z,5.38
2023-05-01T03:17:16.612Z,5.97
2023-05-01T03:19:49.803Z,6.55
2023-05-01T03:22:22.902Z,6.75
2023-05-01T03:24:55.365Z,5.00
2023-05-01T03:27:28.122Z,5.97
2023-05-01T03:30:00.730Z,6.75
2023-05-01T03:32:33.578Z,8.18
2023-05-01T03:35:06.602Z,5.03
2023-05-01T03:37:39.693Z,5.57
2023-05-01T03:40:13.791Z,5.63
2023-05-01T03:42:46.615Z,5.65
2023-05-01T03:45:19.149Z,6.53
2023-05-01T03:47:52.428Z,5.15
2023-05-01T03:50:25.009Z,6.25
2023-05-01T03:52:57.751Z,6.03
2023-05-01T03:55:30.750Z,5.90
2023-05-01T03:58:03.483Z,6.05
2023-05-01T04:00:36.166Z,5.88
2023-05-01T04:03:09.094Z,6.20
2023-05-01T04:05:41.746Z,6.80
2023-05-01T04:08:14.522Z,5.43
2023-05-01T04:10:47.068Z,7.00
2023-05-01T04:13:19.788Z,7.25
2023-05-01T04:15:52.538Z,8.73
2023-05-01T04:18:25.564Z,7.55
2023-05-01T04:20:58.197Z,6.07
2023-05-01T04:23:31.383Z,7.97
2023-05-01T04:26:04.228Z,7.63
2023-05-01T04:28:37.294Z,7.28
2023-05-01T04:31:10.029Z,7.65
2023-05-01T04:33:42.831Z,7.47
2023-05-01T04:36:15.281Z,7.60
2023-05-01T04:38:49.023Z,7.32
2023-05-01T04:41:21.827Z,8.25
2023-05-01T04:43:54.604Z,7.82
2023-05-01T04:46:27.064Z,7.05
2023-05-01T04:48:59.864Z,5.93
2023-05-01T04:51:32.508Z,6.10
2023-05-01T04:54:05.363Z,7.03
2023-05-01T04:56:37.832Z,6.13
2023-05-01T04:59:10.654Z,6.65
2023-05-01T05:01:43.250Z,5.85
2023-05-01T05:04:16.144Z,7.40
2023-05-01T05:06:48.756Z,6.97
2023-05-01T05:09:21.731Z,7.45
2023-05-01T05:11:54.212Z,7.63
2023-05-01T05:14:27.044Z,7.97
2023-05-01T05:16:59.571Z,7.80
2023-05-01T05:19:32.456Z,6.95
2023-05-01T05:22:05.064Z,10.00
2023-05-01T05:24:38.665Z,8.32
2023-05-01T05:27:11.126Z,9.63
2023-05-01T05:29:44.696Z,10.35
2023-05-01T05:32:17.306Z,8.82
2023-05-01T05:34:50.158Z,8.90
2023-05-01T05:37:22.666Z,7.72
2023-05-01T05:39:55.862Z,7.55
2023-05-01T05:42:28.486Z,8.27
2023-05-01T05:45:01.290Z,8.20
2023-05-01T05:47:33.741Z,8.98
2023-05-01T05:50:07.502Z,9.57
2023-05-01T05:52:39.954Z,9.73
2023-05-01T05:55:12.760Z,8.77
2023-05-01T05:57:45.203Z,8.90
2023-05-01T06:00:18.633Z,8.88
2023-05-01T06:02:51.586Z,9.32
2023-05-01T06:05:24.616Z,10.23
2023-05-01T06:07:57.155Z,12.77
2023-05-01T06:10:29.954Z,11.10
2023-05-01T06:13:13.268Z,10.55
2023-05-01T06:15:48.723Z,10.27
2023-05-01T06:18:21.733Z,11.07
2023-05-01T06:20:54.576Z,10.82
2023-05-01T06:23:27.046Z,11.27
2023-05-01T06:26:00.594Z,10.20
2023-05-01T06:28:33.053Z,10.35
2023-05-01T06:31:11.061Z,9.55
2023-05-01T06:33:52.769Z,9.95
2023-05-01T06:36:26.061Z,10.25
2023-05-01T06:38:58.659Z,9.63
2023-05-01T06:41:32.889Z,7.70
2023-05-01T06:44:05.436Z,7.88
2023-05-01T06:46:38.217Z,6.95
2023-05-01T06:49:11.188Z,6.43
2023-05-01T06:51:44.195Z,7.03
2023-05-01T06:54:17.011Z,6.15
2023-05-01T06:56:49.754Z,5.13
2023-05-01T06:59:22.272Z,5.07
2023-05-01T07:01:55.052Z,5.75
2023-05-01T07:04:27.579Z,4.88
2023-05-01T07:07:01.123Z,4.25
2023-05-01T07:09:33.567Z,3.63
2023-05-01T07:12:06.899Z,3.80
2023-05-01T07:14:39.475Z,3.70
2023-05-01T07:17:12.491Z,2.80
2023-05-01T07:19:45.582Z,3.03
2023-05-01T07:22:19.649Z,3.28
2023-05-01T07:24:52.214Z,2.30
2023-05-01T07:27:25.082Z,1.95
2023-05-01T07:29:58.311Z,2.55
2023-05-01T07:32:34.348Z,2.17
2023-05-01T07:35:07.469Z,2.35
2023-05-01T07:37:40.508Z,2.15
2023-05-01T07:40:13.085Z,1.88
2023-05-01T07:42:45.860Z,2.40
2023-05-01T07:45:18.890Z,2.38
2023-05-01T07:47:52.415Z,2.45
2023-05-01T07:50:26.067Z,1.70
2023-05-01T07:53:01.865Z,1.92
2023-05-01T07:55:34.576Z,1.83
2023-05-01T07:58:07.525Z,2.38
2023-05-01T08:00:40.528Z,2.25
2023-05-01T08:03:13.737Z,2.00
2023-05-01T08:05:46.318Z,1.92
2023-05-01T08:08:21.307Z,2.35
2023-05-01T08:10:54.950Z,2.08
2023-05-01T08:13:30.020Z,2.38
2023-05-01T08:16:03.590Z,2.20
2023-05-01T08:18:38.512Z,1.95
2023-05-01T08:21:11.300Z,2.22
2023-05-01T08:23:44.556Z,2.22
2023-05-01T08:26:17.132Z,2.60
2023-05-01T08:28:49.918Z,1.67
2023-05-01T08:31:22.898Z,1.90
2023-05-01T08:33:55.637Z,1.88
2023-05-01T08:36:28.186Z,1.80
2023-05-01T08:39:01.211Z,2.40
2023-05-01T08:41:34.832Z,1.50
2023-05-01T08:44:10.654Z,1.52
2023-05-01T08:46:54.891Z,1.45
2023-05-01T08:49:28.674Z,1.50
2023-05-01T08:52:03.136Z,1.17
2023-05-01T08:54:39.386Z,2.08
2023-05-01T08:57:13.100Z,2.35
2023-05-01T08:59:46.598Z,1.88
2023-05-01T09:02:19.931Z,1.58
2023-05-01T09:04:54.240Z,2.13
2023-05-01T09:07:27.051Z,1.95
2023-05-01T09:09:59.817Z,1.75
2023-05-01T09:12:35.633Z,1.55
2023-05-01T09:15:09.842Z,1.63
2023-05-01T09:17:44.154Z,1.70
2023-05-01T09:20:18.679Z,1.83
2023-05-01T09:22:54.103Z,1.98
2023-05-01T09:25:27.071Z,2.10
2023-05-01T09:27:59.571Z,2.20
2023-05-01T09:30:38.424Z,1.77
2023-05-01T09:33:17.013Z,1.60
2023-05-01T09:35:51.531Z,1.73
2023-05-01T09:38:27.833Z,1.30
2023-05-01T09:41:06.670Z,1.20
2023-05-01T09:43:39.281Z,1.67
2023-05-01T09:46:13.125Z,1.75
2023-05-01T09:48:57.318Z,1.70
2023-05-01T09:51:34.746Z,1.83
2023-05-01T09:54:20.074Z,1.65
2023-05-01T09:56:52.831Z,1.27
2023-05-01T09:59:25.919Z,1.65
2023-05-01T10:01:58.754Z,2.15
2023-05-01T10:04:34.970Z,2.17
2023-05-01T10:07:14.879Z,1.65
2023-05-01T10:09:47.416Z,1.83
2023-05-01T10:12:27.227Z,1.60
2023-05-01T10:15:05.519Z,1.88
2023-05-01T10:17:44.738Z,1.60
2023-05-01T10:20:17.364Z,1.30
2023-05-01T10:22:50.568Z,1.50
2023-05-01T10:25:29.267Z,1.52
2023-05-01T10:28:05.477Z,2.00
2023-05-01T10:30:40.368Z,1.48
2023-05-01T10:33:15.201Z,2.17
2023-05-01T10:35:56.343Z,1.48
2023-05-01T10:38:36.695Z,1.50
2023-05-01T10:41:11.609Z,1.50
2023-05-01T10:43:44.720Z,1.30
2023-05-01T10:46:19.251Z,1.30
2023-05-01T10:48:58.038Z,1.60
2023-05-01T10:51:33.464Z,1.73
2023-05-01T10:54:12.556Z,1.60
2023-05-01T10:56:45.168Z,1.50
2023-05-01T10:59:18.162Z,1.75
2023-05-01T11:01:52.306Z,1.45
2023-05-01T11:04:25.383Z,1.33
2023-05-01T11:07:11.185Z,1.58
2023-05-01T11:09:45.239Z,1.40
2023-05-01T11:12:46.506Z,1.70
2023-05-01T11:15:29.405Z,1.13
2023-05-01T11:18:03.717Z,1.48
2023-05-01T11:20:36.671Z,1.90
2023-05-01T11:23:17.712Z,1.60
2023-05-01T11:25:50.611Z,1.88
2023-05-01T11:28:23.155Z,1.40
2023-05-01T11:30:56.064Z,1.80
2023-05-01T11:33:28.745Z,3.08
2023-05-01T11:36:02.402Z,1.98
2023-05-01T11:38:34.875Z,1.75
2023-05-01T11:41:07.611Z,1.70
2023-05-01T11:43:59.104Z,1.90
2023-05-01T11:46:34.985Z,1.80
2023-05-01T11:49:08.574Z,1.90
2023-05-01T11:51:41.334Z,1.70
2023-05-01T11:54:15.578Z,1.75
2023-05-01T11:57:03.736Z,1.73
2023-05-01T11:59:39.895Z,2.03
2023-05-01T12:02:20.522Z,1.70
2023-05-01T12:04:54.539Z,1.60
2023-05-01T12:07:27.464Z,1.60
2023-05-01T12:10:00.219Z,2.20
2023-05-01T12:12:34.709Z,1.88
2023-05-01T12:15:08.471Z,2.00
2023-05-01T12:17:46.521Z,1.38
2023-05-01T12:20:57.022Z,1.80
2023-05-01T12:23:43.335Z,2.33
2023-05-01T12:26:17.903Z,1.60
2023-05-01T12:28:58.739Z,1.52
2023-05-01T12:31:34.226Z,1.92
2023-05-01T12:34:07.998Z,1.63
2023-05-01T12:36:40.730Z,1.77
2023-05-01T12:39:13.682Z,1.85
2023-05-01T12:41:48.760Z,2.28
2023-05-01T12:44:26.726Z,1.70
2023-05-01T12:47:01.047Z,1.38
2023-05-01T12:49:39.102Z,1.80
2023-05-01T12:52:11.644Z,1.88
2023-05-01T12:54:44.478Z,1.63
2023-05-01T12:57:18.039Z,1.58
2023-05-01T13:00:00.339Z,1.67
2023-05-01T13:02:34.028Z,1.73
2023-05-01T13:05:13.384Z,1.65
2023-05-01T13:07:49.854Z,1.98
2023-05-01T13:10:34.682Z,2.17
2023-05-01T13:13:07.435Z,2.00
2023-05-01T13:15:40.292Z,2.00
2023-05-01T13:18:12.918Z,1.85
2023-05-01T13:20:45.920Z,1.38
2023-05-01T13:23:18.458Z,1.83
2023-05-01T13:25:57.513Z,1.63
2023-05-01T13:28:30.070Z,1.73
2023-05-01T13:31:03.708Z,1.67
2023-05-01T13:33:37.135Z,2.05
2023-05-01T13:36:25.235Z,1.95
2023-05-01T13:38:59.676Z,2.00
2023-05-01T13:41:36.096Z,1.73
2023-05-01T13:44:08.917Z,1.80
2023-05-01T13:46:45.363Z,1.70
2023-05-01T13:49:24.627Z,1.58
2023-05-01T13:51:57.966Z,2.35
2023-05-01T13:54:44.948Z,1.73
2023-05-01T13:57:17.949Z,1.75
2023-05-01T13:59:50.581Z,1.45
2023-05-01T14:02:29.276Z,1.40
2023-05-01T14:05:03.297Z,1.50
2023-05-01T14:07:46.222Z,1.75
2023-05-01T14:10:19.602Z,1.60
2023-05-01T14:12:56.030Z,1.60
2023-05-01T14:15:29.675Z,1.15
2023-05-01T14:18:07.120Z,1.48
2023-05-01T14:20:41.195Z,1.70
2023-05-01T14:23:17.008Z,1.17
2023-05-01T14:25:49.877Z,1.50
2023-05-01T14:28:24.017Z,1.92
2023-05-01T14:30:57.283Z,1.20
2023-05-01T14:33:30.284Z,1.70
2023-05-01T14:36:03.321Z,1.42
2023-05-01T14:38:39.399Z,1.27
2023-05-01T14:41:13.268Z,1.58
2023-05-01T14:43:53.258Z,1.70
2023-05-01T14:46:36.452Z,1.48
2023-05-01T14:49:17.206Z,1.70
2023-05-01T14:51:51.078Z,1.75
2023-05-01T14:54:26.752Z,1.50
2023-05-01T14:57:01.805Z,1.42
2023-05-01T14:59:34.884Z,1.48
2023-05-01T15:02:07.693Z,1.70
2023-05-01T15:04:45.102Z,1.67
2023-05-01T15:07:17.805Z,1.70
2023-05-01T15:09:51.917Z,2.00
2023-05-01T15:12:24.501Z,1.90
2023-05-01T15:14:57.739Z,1.50
2023-05-01T15:17:32.260Z,1.92
2023-05-01T15:20:06.635Z,1.92
2023-05-01T15:22:40.965Z,1.38
2023-05-01T15:25:14.863Z,1.67
2023-05-01T15:27:48.613Z,1.70
2023-05-01T15:30:21.883Z,1.98
2023-05-01T15:32:55.850Z,2.33
2023-05-01T15:35:28.806Z,1.77
2023-05-01T15:38:01.532Z,1.55
2023-05-01T15:40:35.112Z,1.50
2023-05-01T15:43:07.681Z,1.27
2023-05-01T15:45:43.657Z,1.38
2023-05-01T15:48:16.574Z,1.48
2023-05-01T15:50:49.482Z,1.67
2023-05-01T15:53:22.961Z,1.73
2023-05-01T15:55:58.937Z,1.40
2023-05-01T15:58:31.415Z,1.48
2023-05-01T16:01:06.977Z,1.80
2023-05-01T16:03:44.632Z,1.42
2023-05-01T16:06:17.689Z,1.80
2023-05-01T16:08:50.597Z,1.63
2023-05-01T16:11:23.747Z,1.90
2023-05-01T16:13:59.270Z,1.45
2023-05-01T16:16:34.203Z,1.98
2023-05-01T16:19:06.653Z,1.80
2023-05-01T16:21:39.873Z,1.50
2023-05-01T16:24:13.561Z,1.35
2023-05-01T16:26:48.600Z,1.60
2023-05-01T16:29:21.714Z,1.90
2023-05-01T16:31:54.550Z,2.20
2023-05-01T16:34:27.649Z,2.28
2023-05-01T16:37:00.454Z,1.80
2023-05-01T16:39:38.409Z,2.15
2023-05-01T16:42:13.431Z,1.80
2023-05-01T16:44:48.932Z,1.77
2023-05-01T16:47:21.982Z,2.00
2023-05-01T16:50:00.149Z,2.22
2023-05-01T16:52:33.261Z,2.47
2023-05-01T16:55:06.573Z,2.15
2023-05-01T16:57:39.309Z,2.08
2023-05-01T17:00:12.432Z,2.55
2023-05-01T17:02:49.268Z,2.72
2023-05-01T17:05:22.493Z,2.67
2023-05-01T17:07:55.419Z,2.50
2023-05-01T17:10:28.247Z,2.38
2023-05-01T17:13:01.488Z,3.28
2023-05-01T17:15:34.063Z,2.80
2023-05-01T17:18:09.783Z,2.88
2023-05-01T17:20:43.476Z,2.65
2023-05-01T17:23:18.497Z,2.50
2023-05-01T17:25:51.018Z,2.60
2023-05-01T17:28:24.316Z,2.20
2023-05-01T17:30:56.820Z,2.40
2023-05-01T17:33:30.507Z,1.98
2023-05-01T17:36:03.693Z,2.20
2023-05-01T17:38:36.902Z,2.25
2023-05-01T17:41:09.498Z,2.33
2023-05-01T17:43:44.752Z,2.15
2023-05-01T17:46:18.590Z,2.10
2023-05-01T17:48:51.417Z,2.30
2023-05-01T17:51:24.003Z,2.50
2023-05-01T17:53:57.485Z,2.30
2023-05-01T17:56:30.156Z,2.78
2023-05-01T17:59:03.285Z,2.20
2023-05-01T18:01:35.913Z,2.38
2023-05-01T18:04:09.122Z,2.60
2023-05-01T18:06:42.209Z,1.90
2023-05-01T18:09:15.061Z,2.78
2023-05-01T18:11:47.595Z,2.50
2023-05-01T18:14:20.347Z,2.28
2023-05-01T18:16:52.956Z,2.60
2023-05-01T18:19:25.891Z,2.05
2023-05-01T18:22:01.169Z,2.33
2023-05-01T18:24:33.936Z,2.38
2023-05-01T18:27:06.426Z,2.28
2023-05-01T18:29:39.319Z,2.10
2023-05-01T18:32:13.752Z,2.13
2023-05-01T18:34:47.100Z,2.92
2023-05-01T18:37:19.741Z,2.63
2023-05-01T18:39:52.492Z,2.08
2023-05-01T18:42:25.024Z,2.17
2023-05-01T18:44:57.927Z,2.28
2023-05-01T18:47:32.393Z,3.05
2023-05-01T18:50:06.448Z,2.20
2023-05-01T18:52:39.151Z,2.00
2023-05-01T18:55:11.964Z,2.00
2023-05-01T18:57:44.931Z,2.60
2023-05-01T19:00:18.158Z,2.10
2023-05-01T19:02:53.064Z,2.70
2023-05-01T19:05:26.381Z,2.05
2023-05-01T19:08:01.947Z,1.83
2023-05-01T19:10:37.343Z,1.92
2023-05-01T19:13:10.348Z,2.08
2023-05-01T19:15:43.728Z,1.92
2023-05-01T19:18:16.904Z,2.13
2023-05-01T19:20:49.710Z,2.20
2023-05-01T19:23:22.690Z,2.17
2023-05-01T19:25:55.791Z,2.25
2023-05-01T19:28:28.450Z,2.42
2023-05-01T19:31:01.876Z,2.25
2023-05-01T19:33:36.999Z,2.88
2023-05-01T19:36:09.766Z,2.33
2023-05-01T19:38:45.386Z,2.75
2023-05-01T19:41:18.208Z,2.45
2023-05-01T19:43:51.299Z,2.50
2023-05-01T19:46:26.102Z,3.05
2023-05-01T19:48:58.652Z,2.80
2023-05-01T19:51:31.624Z,2.90
2023-05-01T19:54:04.598Z,4.18
2023-05-01T19:56:38.601Z,2.95
2023-05-01T19:59:11.086Z,2.60
2023-05-01T20:01:44.950Z,3.38
2023-05-01T20:04:17.802Z,3.35
2023-05-01T20:06:53.894Z,2.63
2023-05-01T20:09:26.516Z,3.00
2023-05-01T20:11:59.263Z,2.72
2023-05-01T20:14:34.082Z,2.95
2023-05-01T20:17:10.096Z,3.17
2023-05-01T20:19:42.777Z,3.05
2023-05-01T20:22:15.534Z,2.88
2023-05-01T20:24:47.982Z,3.03
2023-05-01T20:27:20.900Z,3.25
2023-05-01T20:29:53.947Z,2.85
2023-05-01T20:32:26.811Z,2.83
2023-05-01T20:35:02.253Z,3.08
2023-05-01T20:37:35.409Z,3.58
2023-05-01T20:43:35.576Z,2.72
2023-05-01T20:46:08.395Z,3.40
2023-05-01T20:48:41.002Z,2.45
2023-05-01T20:51:15.009Z,3.08
2023-05-01T20:53:47.558Z,3.70
2023-05-01T20:56:20.808Z,3.08
2023-05-01T20:58:53.299Z,3.75
2023-05-01T21:04:51.247Z,4.45
2023-05-01T21:07:42.605Z,3.90
2023-05-01T21:14:07.505Z,4.10
2023-05-01T21:20:21.919Z,4.80
2023-05-01T21:22:58.477Z,4.28
2023-05-01T21:31:32.110Z,4.38
2023-05-01T21:34:14.444Z,4.78
2023-05-01T21:38:45.764Z,4.30
2023-05-01T21:40:23.358Z,4.00
2023-05-01T21:42:56.458Z,4.60
2023-05-01T21:45:29.471Z,4.60
2023-05-01T21:48:02.109Z,3.58
2023-05-01T21:50:36.777Z,4.00
2023-05-01T21:53:09.287Z,4.07
2023-05-01T21:55:46.212Z,4.55
2023-05-01T21:58:18.771Z,4.63
2023-05-01T22:00:52.758Z,3.80
2023-05-01T22:03:25.326Z,4.50
2023-05-01T22:05:58.369Z,4.40
2023-05-01T22:08:31.033Z,4.50
2023-05-01T22:11:04.736Z,4.82
2023-05-01T22:13:38.546Z,5.07
2023-05-01T22:16:13.729Z,4.55
2023-05-01T22:18:48.601Z,4.63
2023-05-01T22:21:23.344Z,3.97
2023-05-01T22:23:55.896Z,3.80
2023-05-01T22:26:28.841Z,4.43
2023-05-01T22:29:01.350Z,4.00
2023-05-01T22:31:34.151Z,4.78
2023-05-01T22:34:06.599Z,5.15
2023-05-01T22:36:39.875Z,4.30
2023-05-01T22:39:12.336Z,5.15
2023-05-01T22:41:45.217Z,4.82
2023-05-01T22:44:17.993Z,4.57
2023-05-01T22:46:51.706Z,4.47
2023-05-01T22:49:24.236Z,4.80
2023-05-01T22:51:57.423Z,4.85
2023-05-01T22:54:29.909Z,3.90
2023-05-01T22:57:02.724Z,5.60
2023-05-01T22:59:35.245Z,3.83
2023-05-01T23:02:08.604Z,4.03
2023-05-01T23:04:41.364Z,4.97
2023-05-01T23:07:14.205Z,3.90
2023-05-01T23:09:47.357Z,4.43
2023-05-01T23:12:23.454Z,5.10
2023-05-01T23:14:56.121Z,3.72
2023-05-01T23:17:34.668Z,4.45
2023-05-01T23:20:09.207Z,4.60
2023-05-01T23:22:42.014Z,4.30
2023-05-01T23:25:21.490Z,4.45
2023-05-01T23:27:56.513Z,3.50
2023-05-01T23:30:29.043Z,3.95
2023-05-01T23:33:01.866Z,4.57
2023-05-01T23:35:34.389Z,4.50
2023-05-01T23:38:07.224Z,3.28
2023-05-01T23:40:40.712Z,3.90
2023-05-01T23:43:13.780Z,3.50
2023-05-01T23:45:46.640Z,3.42
2023-05-01T23:48:19.443Z,3.90
2023-05-01T23:50:52.042Z,4.28
2023-05-01T23:53:25.166Z,3.33
2023-05-01T23:55:57.903Z,4.07
2023-05-01T23:58:30.756Z,3.78
